Time;durP1;ratioP1;P1;durP2;ratioP2;P2;SDS_P1;SDS_P2;PMS_P1;PMS_P2;Temp;Humidity;BMP_temperature;BMP_pressure;BME280_temperature;BME280_humidity;BME280_pressure;Samples;Min_cycle;Max_cycle;Signal;HPM_P1;HPM_P2
2021/11/04 00:01:28;;;;;;;;;;;;;;;4.33;100.00;99658.59;5112320;28;20019;-71
2021/11/04 00:03:54;;;;;;;;;;;;;;;4.29;100.00;99651.69;5112409;28;20026;-73
2021/11/04 00:06:20;;;;;;;;;;;;;;;4.26;100.00;99649.25;5112701;28;19924;-72
2021/11/04 00:08:46;;;;;;;;;;;;;;;4.23;100.00;99658.38;5112482;28;19924;-72
2021/11/04 00:11:14;;;;;;;;;;;;;;;4.21;100.00;99663.00;5112402;28;19923;-71
2021/11/04 00:13:40;;;;;;;;;;;;;;;4.21;100.00;99664.81;5112268;28;20397;-72
2021/11/04 00:16:09;;;;;;;;;;;;;;;4.18;100.00;99657.84;5112464;28;20392;-73
2021/11/04 00:18:36;;;;;;;;;;;;;;;4.17;100.00;99662.38;5112564;28;19946;-73
2021/11/04 00:21:02;;;;;;;;;;;;;;;4.15;100.00;99658.91;5111718;28;19924;-73
2021/11/04 00:23:28;;;;;;;;;;;;;;;4.13;100.00;99655.50;5112122;28;20030;-73
2021/11/04 00:25:55;;;;;;;;;;;;;;;4.10;100.00;99646.78;5112029;28;20018;-72
2021/11/04 00:28:22;;;;;;;;;;;;;;;4.04;100.00;99637.34;5110973;28;19970;-71
2021/11/04 00:30:49;;;;;;;;;;;;;;;3.99;100.00;99640.34;5111988;28;19934;-73
2021/11/04 00:33:15;;;;;;;;;;;;;;;3.97;100.00;99631.56;5112122;28;20411;-73
2021/11/04 00:35:41;;;;;;;;;;;;;;;3.98;100.00;99638.66;5112018;28;19950;-72
2021/11/04 00:38:08;;;;;;;;;;;;;;;3.98;100.00;99624.34;5111983;28;19927;-72
2021/11/04 00:40:34;;;;;;;;;;;;;;;3.95;100.00;99617.38;5111954;28;20034;-73
2021/11/04 00:43:01;;;;;;;;;;;;;;;3.96;100.00;99615.56;5111965;28;19923;-73
2021/11/04 00:45:28;;;;;;;;;;;;;;;3.93;100.00;99615.75;5111902;28;20022;-73
2021/11/04 00:47:55;;;;;;;;;;;;;;;3.93;100.00;99613.06;5111731;28;19955;-72
2021/11/04 00:50:22;;;;;;;;;;;;;;;3.94;100.00;99610.31;5111579;28;19931;-72
2021/11/04 00:52:49;;;;;;;;;;;;;;;3.96;100.00;99596.75;5111913;28;19924;-72
2021/11/04 00:55:15;;;;;;;;;;;;;;;3.97;100.00;99585.06;5111849;28;20018;-73
2021/11/04 00:57:41;;;;;;;;;;;;;;;4.01;100.00;99591.94;5111695;28;20457;-72
2021/11/04 01:00:09;;;;;;;;;;;;;;;4.04;100.00;99590.84;5111683;28;19963;-72
2021/11/04 01:02:37;;;;;;;;;;;;;;;4.05;100.00;99582.69;5111781;28;19934;-73
2021/11/04 01:05:05;;;;;;;;;;;;;;;4.07;100.00;99582.56;5111727;28;19931;-72
2021/11/04 01:07:31;;;;;;;;;;;;;;;4.07;100.00;99583.41;5111731;28;19950;-72
2021/11/04 01:09:57;;;;;;;;;;;;;;;4.10;100.00;99574.28;5111686;28;20027;-73
2021/11/04 01:12:23;;;;;;;;;;;;;;;4.11;100.00;99579.53;5110196;28;20023;-72
2021/11/04 01:14:50;;;;;;;;;;;;;;;4.12;100.00;99575.88;5111600;28;20325;-72
2021/11/04 01:17:16;;;;;;;;;;;;;;;4.13;100.00;99577.59;5111503;28;19924;-72
2021/11/04 01:19:44;;;;;;;;;;;;;;;4.14;100.00;99581.13;5111538;28;19946;-72
2021/11/04 01:22:10;;;;;;;;;;;;;;;4.13;100.00;99571.34;5111450;28;19924;-72
2021/11/04 01:24:36;;;;;;;;;;;;;;;4.10;100.00;99567.09;5111757;28;19924;-72
2021/11/04 01:27:03;;;;;;;;;;;;;;;4.10;100.00;99568.91;5111662;28;20014;-73
2021/11/04 01:29:29;;;;;;;;;;;;;;;4.07;100.00;99582.56;5110350;28;19993;-73
2021/11/04 01:31:55;;;;;;;;;;;;;;;4.03;100.00;99581.91;5111018;28;19955;-73
2021/11/04 01:34:22;;;;;;;;;;;;;;;4.00;100.00;99590.19;5111439;28;20411;-72
2021/11/04 01:36:49;;;;;;;;;;;;;;;3.97;100.00;99587.75;5111594;28;20308;-72
2021/11/04 01:39:16;;;;;;;;;;;;;;;3.96;100.00;99591.41;5111353;28;19927;-73
2021/11/04 01:41:42;;;;;;;;;;;;;;;3.97;100.00;99585.91;5111391;28;19981;-73
2021/11/04 01:44:08;;;;;;;;;;;;;;;3.99;100.00;99583.09;5111343;28;20018;-72
2021/11/04 01:46:35;;;;;;;;;;;;;;;4.00;100.00;99564.19;5111404;28;19984;-72
2021/11/04 01:49:02;;;;;;;;;;;;;;;4.04;100.00;99567.53;5111407;28;19939;-73
2021/11/04 01:51:28;;;;;;;;;;;;;;;4.07;100.00;99566.44;5107725;28;20019;-73
2021/11/04 01:53:56;;;;;;;;;;;;;;;4.09;100.00;99565.38;5110100;28;19970;-72
2021/11/04 01:56:24;;;;;;;;;;;;;;;4.10;100.00;99553.66;5111210;28;19930;-72
2021/11/04 01:58:51;;;;;;;;;;;;;;;4.13;100.00;99555.25;5111509;28;19924;-72
2021/11/04 02:01:17;;;;;;;;;;;;;;;4.15;100.00;99547.94;5111931;28;20473;-72
2021/11/04 02:03:45;;;;;;;;;;;;;;;4.16;100.00;99547.81;5115001;28;19930;-72
2021/11/04 02:06:14;;;;;;;;;;;;;;;4.22;100.00;99551.03;5114694;28;20362;-72
2021/11/04 02:08:45;;;;;;;;;;;;;;;4.25;100.00;99548.09;5114791;28;20015;-72
2021/11/04 02:11:14;;;;;;;;;;;;;;;4.27;100.00;99551.56;5114395;28;19923;-72
2021/11/04 02:13:46;;;;;;;;;;;;;;;4.32;100.00;99554.75;5114905;28;19976;-73
2021/11/04 02:16:12;;;;;;;;;;;;;;;4.35;100.00;99559.91;5115103;28;19924;-72
2021/11/04 02:18:40;;;;;;;;;;;;;;;4.36;100.00;99557.09;5113211;28;20480;-73
2021/11/04 02:21:10;;;;;;;;;;;;;;;4.37;100.00;99555.28;5119775;28;20361;-73
2021/11/04 02:23:42;;;;;;;;;;;;;;;4.39;100.00;99555.16;5114462;28;19934;-72
2021/11/04 02:26:10;;;;;;;;;;;;;;;4.39;100.00;99547.97;5114653;28;19923;-72
2021/11/04 02:28:38;;;;;;;;;;;;;;;4.42;100.00;99539.66;5114263;28;20026;-72
2021/11/04 02:31:06;;;;;;;;;;;;;;;4.45;100.00;99534.06;5114338;28;19930;-73
2021/11/04 02:33:32;;;;;;;;;;;;;;;4.44;100.00;99526.97;5114198;28;20352;-72
2021/11/04 02:35:59;;;;;;;;;;;;;;;4.45;100.00;99517.94;5114319;28;19934;-72
2021/11/04 02:38:28;;;;;;;;;;;;;;;4.46;100.00;99514.28;5114348;28;20320;-72
2021/11/04 02:40:54;;;;;;;;;;;;;;;4.47;100.00;99510.63;5114180;28;19931;-73
2021/11/04 02:43:22;;;;;;;;;;;;;;;4.49;100.00;99492.56;5114274;28;19956;-72
2021/11/04 02:45:48;;;;;;;;;;;;;;;4.50;100.00;99485.34;5114021;28;19970;-73
2021/11/04 02:48:15;;;;;;;;;;;;;;;4.48;100.00;99488.16;5113694;28;19966;-73
2021/11/04 02:50:43;;;;;;;;;;;;;;;4.47;100.00;99499.88;5113845;28;19976;-72
2021/11/04 02:53:09;;;;;;;;;;;;;;;4.46;100.00;99503.56;5113951;28;19990;-72
2021/11/04 02:55:37;;;;;;;;;;;;;;;4.45;100.00;99496.44;5113845;28;20292;-72
2021/11/04 02:58:05;;;;;;;;;;;;;;;4.42;100.00;99485.91;5114021;28;20446;-72
2021/11/04 03:00:32;;;;;;;;;;;;;;;4.41;100.00;99473.47;5113720;28;19934;-73
2021/11/04 03:02:59;;;;;;;;;;;;;;;4.40;100.00;99462.84;5113859;28;19967;-73
2021/11/04 03:05:25;;;;;;;;;;;;;;;4.36;100.00;99459.53;5113939;28;19974;-72
2021/11/04 03:07:51;;;;;;;;;;;;;;;4.37;100.00;99466.63;5113310;28;20030;-72
2021/11/04 03:10:19;;;;;;;;;;;;;;;4.34;100.00;99459.66;5113800;28;20101;-72
2021/11/04 03:12:45;;;;;;;;;;;;;;;4.38;100.00;99465.63;5113237;28;19930;-72
2021/11/04 03:15:13;;;;;;;;;;;;;;;4.40;100.00;99468.22;5112262;28;20389;-73
2021/11/04 03:17:41;;;;;;;;;;;;;;;4.37;100.00;99466.63;5113717;28;20014;-72
2021/11/04 03:20:08;;;;;;;;;;;;;;;4.41;100.00;99464.53;5113315;28;20019;-72
2021/11/04 03:22:36;;;;;;;;;;;;;;;4.40;100.00;99469.06;5113373;28;19971;-73
2021/11/04 03:25:02;;;;;;;;;;;;;;;4.43;100.00;99471.50;5112862;28;20015;-72
2021/11/04 03:27:29;;;;;;;;;;;;;;;4.42;100.00;99477.84;5113338;28;20026;-73
2021/11/04 03:29:56;;;;;;;;;;;;;;;4.46;100.00;99489.22;5113571;28;19924;-73
2021/11/04 03:32:23;;;;;;;;;;;;;;;4.50;100.00;99491.59;5113998;28;20014;-72
2021/11/04 03:34:51;;;;;;;;;;;;;;;4.52;100.00;99486.94;5113842;28;20381;-72
2021/11/04 03:37:18;;;;;;;;;;;;;;;4.56;100.00;99492.06;5113473;28;19931;-73
2021/11/04 03:39:44;;;;;;;;;;;;;;;4.60;100.00;99496.28;5113246;28;20018;-73
2021/11/04 03:42:11;;;;;;;;;;;;;;;4.60;100.00;99493.59;5111203;28;20031;-72
2021/11/04 03:44:39;;;;;;;;;;;;;;;4.61;100.00;99508.72;5111950;28;20031;-73
2021/11/04 03:47:06;;;;;;;;;;;;;;;4.63;100.00;99509.47;5113534;28;19924;-73
2021/11/04 03:49:34;;;;;;;;;;;;;;;4.65;100.00;99508.38;5113190;28;19931;-73
2021/11/04 03:52:01;;;;;;;;;;;;;;;4.66;100.00;99509.22;5112582;28;19955;-73
2021/11/04 03:54:28;;;;;;;;;;;;;;;4.67;100.00;99502.88;5113110;28;19963;-73
2021/11/04 03:56:55;;;;;;;;;;;;;;;4.68;100.00;99492.00;5112787;28;20038;-73
2021/11/04 03:59:22;;;;;;;;;;;;;;;4.67;100.00;99492.97;5112410;28;20273;-72
2021/11/04 04:01:49;;;;;;;;;;;;;;;4.69;100.00;99482.97;5112295;28;19924;-72
2021/11/04 04:04:15;;;;;;;;;;;;;;;4.68;100.00;99470.50;5112483;28;19930;-72
2021/11/04 04:06:42;;;;;;;;;;;;;;;4.65;100.00;99467.19;5112455;28;20408;-72
2021/11/04 04:09:10;;;;;;;;;;;;;;;4.63;100.00;99466.47;5112397;28;19923;-72
2021/11/04 04:11:37;;;;;;;;;;;;;;;4.63;100.00;99461.94;5112343;28;20026;-72
2021/11/04 04:14:03;;;;;;;;;;;;;;;4.62;100.00;99464.75;5112695;28;19930;-72
2021/11/04 04:16:29;;;;;;;;;;;;;;;4.60;100.00;99455.94;5112320;28;19924;-73
2021/11/04 04:18:55;;;;;;;;;;;;;;;4.63;100.00;99442.28;5112175;28;20018;-73
2021/11/04 04:21:22;;;;;;;;;;;;;;;4.62;100.00;99421.72;5111924;28;20026;-73
2021/11/04 04:23:48;;;;;;;;;;;;;;;4.61;100.00;99399.38;5111809;28;19924;-72
2021/11/04 04:26:15;;;;;;;;;;;;;;;4.60;100.00;99397.66;5112135;28;20011;-73
2021/11/04 04:28:42;;;;;;;;;;;;;;;4.61;100.00;99399.38;5112140;28;20432;-73
2021/11/04 04:31:08;;;;;;;;;;;;;;;4.61;100.00;99383.25;5111971;28;19928;-72
2021/11/04 04:33:34;;;;;;;;;;;;;;;4.63;100.00;99380.44;5112052;28;19993;-73
2021/11/04 04:36:01;;;;;;;;;;;;;;;4.64;100.00;99383.00;5111660;28;19992;-73
2021/11/04 04:38:27;;;;;;;;;;;;;;;4.59;100.00;99389.72;5111897;28;20010;-72
2021/11/04 04:40:53;;;;;;;;;;;;;;;4.61;100.00;99399.38;5111956;28;20363;-73
2021/11/04 04:43:21;;;;;;;;;;;;;;;4.57;100.00;99399.72;5111797;28;20022;-73
2021/11/04 04:45:47;;;;;;;;;;;;;;;4.60;100.00;99403.03;5112067;28;20018;-73
2021/11/04 04:48:13;;;;;;;;;;;;;;;4.62;100.00;99401.09;5111886;28;20043;-73
2021/11/04 04:50:40;;;;;;;;;;;;;;;4.65;100.00;99403.53;5111707;28;20016;-73
2021/11/04 04:53:07;;;;;;;;;;;;;;;4.67;100.00;99400.72;5111913;28;20014;-73
2021/11/04 04:55:33;;;;;;;;;;;;;;;4.70;100.00;99403.16;5111626;28;19931;-72
2021/11/04 04:58:00;;;;;;;;;;;;;;;4.69;100.00;99402.31;5112261;28;20423;-73
2021/11/04 05:00:28;;;;;;;;;;;;;;;4.71;100.00;99394.13;5111637;28;20014;-73
2021/11/04 05:02:55;;;;;;;;;;;;;;;4.74;100.00;99398.41;5111704;28;19923;-73
2021/11/04 05:05:21;;;;;;;;;;;;;;;4.75;100.00;99389.38;5111683;28;19928;-73
2021/11/04 05:07:48;;;;;;;;;;;;;;;4.80;100.00;99388.03;5111824;28;20453;-73
2021/11/04 05:10:15;;;;;;;;;;;;;;;4.78;100.00;99389.13;5111463;28;19923;-73
2021/11/04 05:12:42;;;;;;;;;;;;;;;4.78;100.00;99384.59;5111801;28;19924;-73
2021/11/04 05:15:08;;;;;;;;;;;;;;;4.79;100.00;99389.00;5111673;28;19977;-73
2021/11/04 05:17:36;;;;;;;;;;;;;;;4.80;100.00;99387.19;5111503;28;20300;-73
2021/11/04 05:20:04;;;;;;;;;;;;;;;4.82;100.00;99388.78;5111535;28;20022;-73
2021/11/04 05:22:30;;;;;;;;;;;;;;;4.85;100.00;99388.53;5111295;28;19928;-73
2021/11/04 05:24:56;;;;;;;;;;;;;;;4.88;100.00;99379.38;5111568;28;19967;-73
2021/11/04 05:27:22;;;;;;;;;;;;;;;4.91;100.00;99375.59;5111495;28;19962;-73
2021/11/04 05:29:49;;;;;;;;;;;;;;;4.91;100.00;99379.13;5111486;28;20015;-73
2021/11/04 05:32:17;;;;;;;;;;;;;;;4.92;100.00;99382.66;5111227;28;19951;-71
2021/11/04 05:34:45;;;;;;;;;;;;;;;4.91;100.00;99380.97;5111163;28;19924;-74
2021/11/04 05:37:11;;;;;;;;;;;;;;;4.91;100.00;99364.84;5110524;28;20006;-72
2021/11/04 05:39:38;;;;;;;;;;;;;;;4.91;100.00;99364.84;5113831;28;20018;-72
2021/11/04 05:42:04;;;;;;;;;;;;;;;4.90;100.00;99360.44;5113801;28;20019;-74
2021/11/04 05:44:31;;;;;;;;;;;;;;;4.90;100.00;99355.06;5108376;28;19927;-74
2021/11/04 05:46:57;;;;;;;;;;;;;;;4.91;100.00;99354.91;5095800;28;19963;-74
2021/11/04 05:49:24;;;;;;;;;;;;;;;4.89;100.00;99346.13;5094307;28;20385;-74
2021/11/04 05:51:51;;;;;;;;;;;;;;;4.93;100.00;99352.09;5104795;28;19970;-73
2021/11/04 05:54:17;;;;;;;;;;;;;;;4.94;100.00;99349.28;5109392;28;20306;-74
2021/11/04 05:56:44;;;;;;;;;;;;;;;4.91;100.00;99354.91;5094372;28;20027;-73
2021/11/04 05:59:10;;;;;;;;;;;;;;;4.92;100.00;99362.03;5094587;28;20027;-73
2021/11/04 06:01:36;;;;;;;;;;;;;;;4.91;100.00;99356.78;5094177;28;20019;-72
2021/11/04 06:04:03;;;;;;;;;;;;;;;4.90;100.00;99361.28;5094239;28;19928;-73
2021/11/04 06:06:30;;;;;;;;;;;;;;;4.89;100.00;99359.59;5106739;28;20452;-72
2021/11/04 06:08:57;;;;;;;;;;;;;;;4.91;100.00;99346.84;5114357;28;20008;-73
2021/11/04 06:11:24;;;;;;;;;;;;;;;4.89;100.00;99343.44;5114275;28;20014;-73
2021/11/04 06:13:50;;;;;;;;;;;;;;;4.92;100.00;99340.50;5114395;28;20469;-74
2021/11/04 06:16:16;;;;;;;;;;;;;;;4.90;100.00;99338.91;5106243;28;20303;-72
2021/11/04 06:18:43;;;;;;;;;;;;;;;4.91;100.00;99325.34;5113079;28;19967;-72
2021/11/04 06:21:12;;;;;;;;;;;;;;;4.93;100.00;99322.53;5112975;28;19924;-72
2021/11/04 06:23:38;;;;;;;;;;;;;;;4.92;100.00;99320.81;5112970;28;19946;-72
2021/11/04 06:26:06;;;;;;;;;;;;;;;4.94;100.00;99316.19;5111938;28;19924;-72
2021/11/04 06:28:32;;;;;;;;;;;;;;;4.94;100.00;99317.03;5114242;28;20026;-72
2021/11/04 06:30:58;;;;;;;;;;;;;;;4.96;100.00;99311.53;5099180;28;19977;-72
2021/11/04 06:33:24;;;;;;;;;;;;;;;4.93;100.00;99315.34;5093431;28;20019;-72
2021/11/04 06:35:53;;;;;;;;;;;;;;;4.95;100.00;99316.03;5093626;28;20007;-71
2021/11/04 06:38:19;;;;;;;;;;;;;;;4.98;100.00;99317.63;5096310;28;19931;-71
2021/11/04 06:40:46;;;;;;;;;;;;;;;5.02;100.00;99317.28;5105122;28;19924;-71
2021/11/04 06:43:13;;;;;;;;;;;;;;;5.02;100.00;99317.28;5106217;28;19967;-72
2021/11/04 06:45:41;;;;;;;;;;;;;;;5.05;100.00;99321.56;5096555;28;19952;-71
2021/11/04 06:48:08;;;;;;;;;;;;;;;5.07;100.00;99316.06;5103249;28;19924;-71
2021/11/04 06:50:37;;;;;;;;;;;;;;;5.05;100.00;99313.50;5102878;28;20661;-71
2021/11/04 06:53:06;;;;;;;;;;;;;;;5.04;100.00;99301.03;5091709;28;19946;-71
2021/11/04 06:55:33;;;;;;;;;;;;;;;5.02;100.00;99298.47;5094585;28;19977;-71
2021/11/04 06:58:00;;;;;;;;;;;;;;;5.06;100.00;99304.41;5110028;28;20303;-71
2021/11/04 07:00:29;;;;;;;;;;;;;;;5.08;100.00;99294.41;5096999;28;19924;-71
2021/11/04 07:02:59;;;;;;;;;;;;;;;5.08;100.00;99290.84;5104841;28;20027;-71
2021/11/04 07:05:25;;;;;;;;;;;;;;;5.08;100.00;99291.72;5094426;28;20320;-71
2021/11/04 07:07:54;;;;;;;;;;;;;;;5.08;100.00;99286.34;5107725;28;20278;-71
2021/11/04 07:10:22;;;;;;;;;;;;;;;5.08;100.00;99278.28;5103008;28;19923;-71
2021/11/04 07:12:50;;;;;;;;;;;;;;;5.11;100.00;99280.69;5111710;28;19924;-71
2021/11/04 07:15:17;;;;;;;;;;;;;;;5.10;100.00;99278.97;5109858;28;20269;-71
2021/11/04 07:17:45;;;;;;;;;;;;;;;5.09;100.00;99265.66;5113136;28;20038;-71
2021/11/04 07:20:12;;;;;;;;;;;;;;;5.12;100.00;99268.13;5112680;28;20022;-71
2021/11/04 07:22:39;;;;;;;;;;;;;;;5.12;100.00;99270.81;5111633;28;19928;-71
2021/11/04 07:25:07;;;;;;;;;;;;;;;5.14;100.00;99264.28;5112291;28;19930;-71
2021/11/04 07:27:37;;;;;;;;;;;;;;;5.17;100.00;99261.38;5112395;28;20022;-71
2021/11/04 07:30:06;;;;;;;;;;;;;;;5.22;100.00;99255.59;5112650;28;19928;-71
2021/11/04 07:32:33;;;;;;;;;;;;;;;5.24;100.00;99256.34;5112623;28;20480;-72
2021/11/04 07:35:01;;;;;;;;;;;;;;;5.24;100.00;99255.47;5112937;28;19959;-71
2021/11/04 07:37:31;;;;;;;;;;;;;;;5.27;100.00;99257.94;5106610;28;19973;-71
2021/11/04 07:39:58;;;;;;;;;;;;;;;5.29;100.00;99253.25;5109409;28;20300;-70
2021/11/04 07:42:24;;;;;;;;;;;;;;;5.30;100.00;99255.81;5107806;28;19924;-71
2021/11/04 07:44:50;;;;;;;;;;;;;;;5.31;100.00;99251.31;5096929;28;20014;-71
2021/11/04 07:47:16;;;;;;;;;;;;;;;5.32;100.00;99242.25;5096504;28;20359;-71
2021/11/04 07:49:43;;;;;;;;;;;;;;;5.34;100.00;99242.97;5091842;28;20026;-71
2021/11/04 07:52:11;;;;;;;;;;;;;;;5.35;100.00;99237.47;5092283;28;19954;-71
2021/11/04 07:54:37;;;;;;;;;;;;;;;5.40;100.00;99233.53;5095040;28;20366;-71
2021/11/04 07:57:04;;;;;;;;;;;;;;;5.42;100.00;99232.41;5112596;28;19924;-71
2021/11/04 07:59:31;;;;;;;;;;;;;;;5.42;100.00;99227.03;5110258;28;20018;-71
2021/11/04 08:01:58;;;;;;;;;;;;;;;5.40;100.00;99226.31;5111828;28;19931;-71
2021/11/04 08:04:24;;;;;;;;;;;;;;;5.43;100.00;99218.00;5112190;28;19934;-71
2021/11/04 08:06:51;;;;;;;;;;;;;;;5.43;100.00;99218.00;5097375;28;19924;-71
2021/11/04 08:09:19;;;;;;;;;;;;;;;5.44;100.00;99208.94;5091815;28;19974;-71
2021/11/04 08:11:45;;;;;;;;;;;;;;;5.47;100.00;99216.75;5091688;28;20026;-71
2021/11/04 08:14:12;;;;;;;;;;;;;;;5.42;100.00;99208.19;5093590;28;19924;-70
2021/11/04 08:16:38;;;;;;;;;;;;;;;5.40;100.00;99210.19;5091497;28;20401;-71
2021/11/04 08:19:04;;;;;;;;;;;;;;;5.40;100.00;99207.50;5095123;28;20025;-71
2021/11/04 08:21:30;;;;;;;;;;;;;;;5.40;100.00;99207.50;5092211;28;19940;-71
2021/11/04 08:23:57;;;;;;;;;;;;;;;5.39;100.00;99208.47;5095510;28;19959;-71
2021/11/04 08:26:24;;;;;;;;;;;;;;;5.37;100.00;99202.34;5110081;28;19955;-71
2021/11/04 08:28:52;;;;;;;;;;;;;;;5.36;100.00;99196.13;5106116;28;19923;-71
2021/11/04 08:31:18;;;;;;;;;;;;;;;5.38;100.00;99201.38;5104475;28;19924;-71
2021/11/04 08:33:44;;;;;;;;;;;;;;;5.40;100.00;99199.41;5100274;28;19963;-71
2021/11/04 08:36:11;;;;;;;;;;;;;;;5.42;100.00;99193.91;5111519;28;20416;-70
2021/11/04 08:38:37;;;;;;;;;;;;;;;5.44;100.00;99191.91;5112178;28;20026;-71
2021/11/04 08:41:04;;;;;;;;;;;;;;;5.45;100.00;99185.56;5093362;28;19924;-71
2021/11/04 08:43:31;;;;;;;;;;;;;;;5.47;100.00;99189.00;5096178;28;19946;-71
2021/11/04 08:45:58;;;;;;;;;;;;;;;5.45;100.00;99189.13;5111132;28;19959;-71
2021/11/04 08:48:24;;;;;;;;;;;;;;;5.45;100.00;99182.88;5108182;28;20401;-71
2021/11/04 08:50:50;;;;;;;;;;;;;;;5.46;100.00;99174.66;5100597;28;20355;-71
2021/11/04 08:53:17;;;;;;;;;;;;;;;5.46;100.00;99169.28;5094353;28;20027;-71
2021/11/04 08:55:43;;;;;;;;;;;;;;;5.48;100.00;99166.47;5101520;28;20019;-71
2021/11/04 08:58:10;;;;;;;;;;;;;;;5.48;100.00;99167.31;5091151;28;19924;-71
2021/11/04 09:00:37;;;;;;;;;;;;;;;5.44;100.00;99159.63;5104257;28;19924;-71
2021/11/04 09:03:04;;;;;;;;;;;;;;;5.46;100.00;99150.44;5105202;28;20022;-71
2021/11/04 09:05:30;;;;;;;;;;;;;;;5.44;100.00;99148.84;5111406;28;20022;-71
2021/11/04 09:07:56;;;;;;;;;;;;;;;5.43;100.00;99126.50;5111798;28;20050;-70
2021/11/04 09:10:23;;;;;;;;;;;;;;;5.41;100.00;99124.91;5109965;28;19934;-70
2021/11/04 09:12:50;;;;;;;;;;;;;;;5.38;100.00;99131.41;5095136;28;19928;-71
2021/11/04 09:15:16;;;;;;;;;;;;;;;5.34;100.00;99121.88;5095276;28;20015;-71
2021/11/04 09:17:44;;;;;;;;;;;;;;;5.31;100.00;99119.47;5095228;28;19963;-71
2021/11/04 09:20:12;;;;;;;;;;;;;;;5.31;100.00;99120.31;5094946;28;20026;-72
2021/11/04 09:22:38;;;;;;;;;;;;;;;5.30;100.00;99107.00;5095038;28;19924;-71
2021/11/04 09:25:06;;;;;;;;;;;;;;;5.27;100.00;99110.78;5106878;28;19946;-72
2021/11/04 09:27:32;;;;;;;;;;;;;;;5.30;100.00;99104.28;5115460;28;20450;-72
2021/11/04 09:29:59;;;;;;;;;;;;;;;5.30;100.00;99104.28;5106840;28;20024;-71
2021/11/04 09:32:25;;;;;;;;;;;;;;;5.31;100.00;99100.63;5094935;28;20014;-72
2021/11/04 09:34:53;;;;;;;;;;;;;;;5.28;100.00;99088.28;5095019;28;19924;-72
2021/11/04 09:37:19;;;;;;;;;;;;;;;5.30;100.00;99088.16;5094510;28;19924;-72
2021/11/04 09:39:47;;;;;;;;;;;;;;;5.31;100.00;99079.94;5097567;28;19932;-72
2021/11/04 09:42:16;;;;;;;;;;;;;;;5.32;100.00;99075.44;5114986;28;20018;-72
2021/11/04 09:44:43;;;;;;;;;;;;;;;5.32;100.00;99070.06;5098013;28;19977;-72
2021/11/04 09:47:10;;;;;;;;;;;;;;;5.32;100.00;99059.28;5094310;28;20370;-72
2021/11/04 09:49:36;;;;;;;;;;;;;;;5.32;100.00;99060.13;5114178;28;19930;-72
2021/11/04 09:52:04;;;;;;;;;;;;;;;5.30;100.00;99061.25;5114766;28;19923;-72
2021/11/04 09:54:30;;;;;;;;;;;;;;;5.29;100.00;99064.91;5093562;28;19924;-72
2021/11/04 09:56:57;;;;;;;;;;;;;;;5.26;100.00;99057.13;5094867;28;19967;-72
2021/11/04 09:59:23;;;;;;;;;;;;;;;5.23;100.00;99052.84;5094192;28;19924;-71
2021/11/04 10:01:50;;;;;;;;;;;;;;;5.24;100.00;99041.09;5092387;28;20373;-72
2021/11/04 10:04:30;;;;;;;;;;;;;;;5.27;100.00;99029.22;5098912;28;19928;-71
2021/11/04 10:06:57;;;;;;;;;;;;;;;5.30;100.00;99019.03;5095759;28;20011;-71
2021/11/04 10:09:26;;;;;;;;;;;;;;;5.30;100.00;99010.13;5098946;28;20023;-71
2021/11/04 10:11:54;;;;;;;;;;;;;;;5.35;100.00;98999.81;5101227;28;20015;-71
2021/11/04 10:14:21;;;;;;;;;;;;;;;5.35;100.00;98997.13;5114720;28;20014;-71
2021/11/04 10:16:47;;;;;;;;;;;;;;;5.39;100.00;98992.34;5105518;28;19928;-71
2021/11/04 10:19:15;;;;;;;;;;;;;;;5.41;100.00;98983.16;5094378;28;20011;-71
2021/11/04 10:21:43;;;;;;;;;;;;;;;5.38;100.00;98986.09;5092894;28;19932;-71
2021/11/04 10:24:15;;;;;;;;;;;;;;;5.40;100.00;98980.56;5094151;28;20024;-71
2021/11/04 10:26:43;;;;;;;;;;;;;;;5.38;100.00;98961.88;5098007;28;20014;-71
2021/11/04 10:29:10;;;;;;;;;;;;;;;5.39;100.00;98952.81;5101725;28;20453;-71
2021/11/04 10:31:38;;;;;;;;;;;;;;;5.44;100.00;98957.78;5113835;28;19929;-71
2021/11/04 10:34:04;;;;;;;;;;;;;;;5.44;100.00;98945.19;5097087;28;19924;-71
2021/11/04 10:36:30;;;;;;;;;;;;;;;5.46;100.00;98945.91;5093555;28;20027;-71
2021/11/04 10:38:58;;;;;;;;;;;;;;;5.48;100.00;98938.56;5093530;28;20031;-70
2021/11/04 10:41:26;;;;;;;;;;;;;;;5.50;100.00;98933.03;5100483;28;19969;-71
2021/11/04 10:43:55;;;;;;;;;;;;;;;5.53;100.00;98930.06;5113907;28;20015;-70
2021/11/04 10:46:21;;;;;;;;;;;;;;;5.53;100.00;98911.22;5110433;28;20022;-70
2021/11/04 10:48:48;;;;;;;;;;;;;;;5.52;100.00;98914.91;5115735;28;19927;-70
2021/11/04 10:51:16;;;;;;;;;;;;;;;5.51;100.00;98907.81;5113524;28;20019;-71
2021/11/04 10:53:43;;;;;;;;;;;;;;;5.53;100.00;98909.41;5113956;28;19924;-70
2021/11/04 10:56:21;;;;;;;;;;;;;;;5.57;100.00;98901.03;5113911;28;19961;-70
2021/11/04 10:58:53;;;;;;;;;;;;;;;5.58;100.00;98900.06;5095923;28;20015;-70
2021/11/04 11:01:28;;;;;;;;;;;;;;;5.59;100.00;98896.38;5092759;28;19924;-70
2021/11/04 11:03:55;;;;;;;;;;;;;;;5.58;100.00;98887.44;5093219;28;20031;-71
2021/11/04 11:06:21;;;;;;;;;;;;;;;5.58;100.00;98891.97;5093103;28;19969;-71
2021/11/04 11:08:48;;;;;;;;;;;;;;;5.59;100.00;98885.63;5094389;28;20374;-71
2021/11/04 11:11:14;;;;;;;;;;;;;;;5.60;100.00;98873.84;5102487;28;19959;-71
2021/11/04 11:13:40;;;;;;;;;;;;;;;5.60;100.00;98868.44;5101541;28;19963;-71
2021/11/04 11:16:07;;;;;;;;;;;;;;;5.62;100.00;98861.09;5092940;28;20043;-71
2021/11/04 11:18:36;;;;;;;;;;;;;;;5.64;100.00;98862.66;5092775;28;20442;-71
2021/11/04 11:21:03;;;;;;;;;;;;;;;5.61;100.00;98859.38;5099001;28;19974;-71
2021/11/04 11:23:30;;;;;;;;;;;;;;;5.64;100.00;98848.38;5098397;28;19928;-71
2021/11/04 11:25:57;;;;;;;;;;;;;;;5.65;100.00;98847.34;5102481;28;19924;-71
2021/11/04 11:28:28;;;;;;;;;;;;;;;5.71;100.00;98846.81;5092690;28;19930;-71
2021/11/04 11:31:13;;;;;;;;;;;;;;;5.70;100.00;98842.41;5108276;28;19974;-71
2021/11/04 11:33:41;;;;;;;;;;;;;;;5.74;100.00;98832.22;5092492;28;19928;-71
2021/11/04 11:36:08;;;;;;;;;;;;;;;5.76;100.00;98836.47;5092776;28;20350;-70
2021/11/04 11:39:05;;;;;;;;;;;;;;;5.76;100.00;98841.88;5110887;28;20019;-70
2021/11/04 11:41:32;;;;;;;;;;;;;;;5.74;100.00;98835.75;5110963;27;20026;-70
2021/11/04 11:43:59;;;;;;;;;;;;;;;5.72;100.00;98837.75;5096880;28;20010;-71
2021/11/04 11:46:26;;;;;;;;;;;;;;;5.74;100.00;98838.44;5105186;28;20317;-72
2021/11/04 11:49:07;;;;;;;;;;;;;;;5.73;100.00;98830.50;5108623;28;20022;-71
2021/11/04 11:51:38;;;;;;;;;;;;;;;5.74;100.00;98838.44;5111735;28;19938;-72
2021/11/04 11:54:07;;;;;;;;;;;;;;;5.77;100.00;98830.09;5112049;28;19935;-72
2021/11/04 11:56:35;;;;;;;;;;;;;;;5.80;100.00;98826.25;5106472;28;19950;-72
2021/11/04 11:59:18;;;;;;;;;;;;;;;5.80;100.00;98821.75;5112196;28;20320;-72
2021/11/04 12:01:46;;;;;;;;;;;;;;;5.81;100.00;98815.38;5111632;28;19927;-72
2021/11/04 12:04:22;;;;;;;;;;;;;;;5.85;100.00;98805.16;5112303;28;19923;-72
2021/11/04 12:06:50;;;;;;;;;;;;;;;5.83;100.00;98807.97;5110951;28;20341;-71
2021/11/04 12:09:37;;;;;;;;;;;;;;;5.85;100.00;98803.31;5110111;28;19955;-71
2021/11/04 12:12:03;;;;;;;;;;;;;;;5.87;100.00;98790.53;5104272;28;19935;-72
2021/11/04 12:14:34;;;;;;;;;;;;;;;5.92;100.00;98797.34;5105614;28;20018;-72
2021/11/04 12:17:12;;;;;;;;;;;;;;;5.89;100.00;98787.72;5108269;28;19976;-72
2021/11/04 12:19:39;;;;;;;;;;;;;;;5.91;100.00;98784.91;5091533;28;19924;-72
2021/11/04 12:22:07;;;;;;;;;;;;;;;5.88;100.00;98777.94;5099462;28;20022;-72
2021/11/04 12:24:34;;;;;;;;;;;;;;;5.87;100.00;98773.56;5096204;28;20022;-72
2021/11/04 12:27:08;;;;;;;;;;;;;;;5.86;100.00;98763.75;5090194;28;20445;-72
2021/11/04 12:29:35;;;;;;;;;;;;;;;5.86;100.00;98761.91;5091349;28;19924;-72
2021/11/04 12:32:07;;;;;;;;;;;;;;;5.90;100.00;98767.03;5091039;28;19931;-72
2021/11/04 12:34:33;;;;;;;;;;;;;;;5.90;100.00;98756.25;5095327;28;20023;-72
2021/11/04 12:37:07;;;;;;;;;;;;;;;5.90;100.00;98753.56;5097881;28;20452;-72
2021/11/04 12:39:34;;;;;;;;;;;;;;;5.94;100.00;98753.13;5095990;28;19970;-72
2021/11/04 12:42:01;;;;;;;;;;;;;;;5.94;100.00;98746.91;5091664;28;19950;-72
2021/11/04 12:44:28;;;;;;;;;;;;;;;5.94;100.00;98749.59;5091150;28;20019;-72
2021/11/04 12:46:55;;;;;;;;;;;;;;;5.96;100.00;98747.59;5095109;28;20337;-73
2021/11/04 12:49:24;;;;;;;;;;;;;;;5.96;100.00;98744.91;5111526;28;20082;-72